createdAt,value
2018-07-11T00:06:02.375Z,97.20
2018-07-11T00:08:31.061Z,97.10
2018-07-11T00:10:59.573Z,97.00
2018-07-11T00:13:28.199Z,97.10
2018-07-11T00:15:57.081Z,97.40
2018-07-11T00:18:26.043Z,97.10
2018-07-11T00:20:54.530Z,97.20
2018-07-11T00:23:23.314Z,97.10
2018-07-11T00:25:52.213Z,97.40
2018-07-11T00:28:20.991Z,97.50
2018-07-11T00:30:49.988Z,97.40
2018-07-11T00:33:18.671Z,97.40
2018-07-11T00:35:48.569Z,97.50
2018-07-11T00:38:17.200Z,97.60
2018-07-11T00:40:45.792Z,97.40
2018-07-11T00:43:14.243Z,97.20
2018-07-11T00:45:43.011Z,97.30
2018-07-11T00:48:11.626Z,97.40
2018-07-11T00:50:40.114Z,97.60
2018-07-11T00:53:08.711Z,97.40
2018-07-11T00:55:37.782Z,97.80
2018-07-11T00:58:45.117Z,97.60
2018-07-11T01:01:14.907Z,97.60
2018-07-11T01:03:49.881Z,97.70
2018-07-11T01:06:18.949Z,97.70
2018-07-11T01:08:49.598Z,97.70
2018-07-11T01:11:18.535Z,97.80
2018-07-11T01:13:48.808Z,97.90
2018-07-11T01:16:18.509Z,97.70
2018-07-11T01:18:55.473Z,97.80
2018-07-11T01:21:24.161Z,97.90
2018-07-11T01:23:52.617Z,97.60
2018-07-11T01:26:26.391Z,97.50
2018-07-11T01:28:54.949Z,97.40
2018-07-11T01:31:24.602Z,97.10
2018-07-11T01:33:53.794Z,97.10
2018-07-11T01:36:22.911Z,97.00
2018-07-11T01:41:19.644Z,97.00
2018-07-11T01:43:48.648Z,97.20
2018-07-11T01:46:17.385Z,97.00
2018-07-11T01:48:46.273Z,97.10
2018-07-11T01:51:15.195Z,97.30
2018-07-11T01:53:43.808Z,97.40
2018-07-11T01:56:12.456Z,97.30
2018-07-11T01:58:44.103Z,97.50
2018-07-11T02:01:12.853Z,97.40
2018-07-11T02:03:41.380Z,97.40
2018-07-11T02:06:10.018Z,97.70
2018-07-11T02:08:38.716Z,97.60
2018-07-11T02:11:07.485Z,97.50
2018-07-11T02:13:36.732Z,97.60
2018-07-11T02:16:05.399Z,98.00
2018-07-11T02:18:35.880Z,97.50
2018-07-11T02:21:05.798Z,97.50
2018-07-11T02:26:04.849Z,97.40
2018-07-11T02:31:02.105Z,97.30
2018-07-11T02:33:30.545Z,97.50
2018-07-11T02:35:59.145Z,97.40
2018-07-11T02:38:27.984Z,97.50
2018-07-11T02:40:56.545Z,97.60
2018-07-11T02:43:25.121Z,97.40
2018-07-11T02:45:53.668Z,97.70
2018-07-11T02:50:50.516Z,97.90
2018-07-11T02:53:20.052Z,97.40
2018-07-11T02:55:49.544Z,97.40
2018-07-11T02:58:18.318Z,97.40
2018-07-11T03:00:47.107Z,97.60
2018-07-11T03:03:15.855Z,97.70
2018-07-11T03:05:44.326Z,97.20
2018-07-11T03:08:13.697Z,97.30
2018-07-11T03:13:10.365Z,97.50
2018-07-11T03:15:38.854Z,97.30
2018-07-11T03:18:07.631Z,97.40
2018-07-11T03:20:36.253Z,97.40
2018-07-11T03:23:04.850Z,97.50
2018-07-11T03:25:33.676Z,97.30
2018-07-11T03:28:02.134Z,97.40
2018-07-11T03:30:30.621Z,97.40
2018-07-11T03:32:59.275Z,97.50
2018-07-11T03:35:27.960Z,97.40
2018-07-11T03:37:56.599Z,97.60
2018-07-11T03:40:25.599Z,97.80
2018-07-11T03:42:54.328Z,97.40
2018-07-11T03:45:22.764Z,97.60
2018-07-11T03:50:19.404Z,97.50
2018-07-11T03:52:48.382Z,97.70
2018-07-11T03:57:45.044Z,97.30
2018-07-11T04:00:13.531Z,97.50
2018-07-11T04:02:42.355Z,97.30
2018-07-11T04:05:11.056Z,97.40
2018-07-11T04:07:39.551Z,97.50
2018-07-11T04:10:08.591Z,97.80
2018-07-11T04:12:37.054Z,98.00
2018-07-11T04:15:05.609Z,98.00
2018-07-11T04:17:34.501Z,97.80
2018-07-11T04:20:03.456Z,98.00
2018-07-11T04:22:32.085Z,97.70
2018-07-11T04:25:00.837Z,97.70
2018-07-11T04:27:29.512Z,97.60
2018-07-11T04:29:58.277Z,97.60
2018-07-11T04:34:55.678Z,97.50
2018-07-11T04:37:24.127Z,97.60
2018-07-11T04:39:52.570Z,97.20
2018-07-11T04:42:21.668Z,97.60
2018-07-11T04:44:50.365Z,97.50
2018-07-11T04:47:19.060Z,97.20
2018-07-11T04:49:47.712Z,97.20
2018-07-11T04:52:16.300Z,97.30
2018-07-11T04:54:45.129Z,97.80
2018-07-11T04:57:13.736Z,97.20
2018-07-11T04:59:42.261Z,97.30
2018-07-11T05:02:11.050Z,97.40
2018-07-11T05:04:39.793Z,97.40
2018-07-11T05:09:38.213Z,97.30
2018-07-11T05:14:35.389Z,97.20
2018-07-11T05:17:03.878Z,96.90
2018-07-11T05:19:32.509Z,97.00
2018-07-11T05:22:01.240Z,97.10
2018-07-11T05:24:29.727Z,97.10
2018-07-11T05:26:58.216Z,97.30
2018-07-11T05:29:26.724Z,97.10
2018-07-11T05:31:55.717Z,97.30
2018-07-11T05:36:52.447Z,97.00
2018-07-11T05:39:21.132Z,97.00
2018-07-11T05:41:50.260Z,96.80
2018-07-11T05:44:19.503Z,96.80
2018-07-11T05:46:49.572Z,96.50
2018-07-11T05:51:47.466Z,96.30
2018-07-11T05:54:16.088Z,96.40
2018-07-11T05:56:45.421Z,95.80
2018-07-11T05:59:15.277Z,95.60
2018-07-11T06:02:05.470Z,95.40
2018-07-11T06:05:02.502Z,95.10
2018-07-11T06:08:02.387Z,94.60
2018-07-11T06:10:35.354Z,94.10
2018-07-11T06:13:04.346Z,93.70
2018-07-11T06:15:33.323Z,93.50
2018-07-11T06:18:02.504Z,92.80
2018-07-11T06:20:46.225Z,92.10
2018-07-11T06:23:30.823Z,91.80
2018-07-11T06:28:30.233Z,90.60
2018-07-11T06:30:59.522Z,89.60
2018-07-11T06:33:29.126Z,81.40
2018-07-11T06:35:58.425Z,74.60
2018-07-11T06:38:27.639Z,74.10
2018-07-11T06:40:57.045Z,72.30
2018-07-11T06:43:26.137Z,70.10
2018-07-11T06:45:55.171Z,63.50
2018-07-11T06:48:24.230Z,62.40
2018-07-11T06:50:53.464Z,58.50
2018-07-11T06:55:51.682Z,53.10
2018-07-11T06:58:21.056Z,54.60
2018-07-11T07:00:50.740Z,49.50
2018-07-11T07:03:19.880Z,50.10
2018-07-11T07:05:48.712Z,47.50
2018-07-11T07:08:17.665Z,46.70
2018-07-11T07:10:48.359Z,50.30
2018-07-11T07:13:17.482Z,47.00
2018-07-11T07:15:46.688Z,48.20
2018-07-11T07:18:15.476Z,44.20
2018-07-11T07:20:45.663Z,42.50
2018-07-11T07:23:14.941Z,39.90
2018-07-11T07:25:44.121Z,40.70
2018-07-11T07:28:13.120Z,39.90
2018-07-11T07:30:41.991Z,40.10
2018-07-11T07:33:10.856Z,40.10
2018-07-11T07:35:39.710Z,39.20
2018-07-11T07:38:08.906Z,39.80
2018-07-11T07:40:37.969Z,46.90
2018-07-11T07:43:06.875Z,47.50
2018-07-11T07:45:36.048Z,48.20
2018-07-11T07:48:05.640Z,46.50
2018-07-11T07:50:34.630Z,47.20
2018-07-11T07:53:03.892Z,45.40
2018-07-11T07:55:33.328Z,42.20
2018-07-11T07:58:02.490Z,42.10
2018-07-11T08:00:31.171Z,49.20
2018-07-11T08:03:00.588Z,49.00
2018-07-11T08:05:29.339Z,51.20
2018-07-11T08:07:58.575Z,52.30
2018-07-11T08:10:27.542Z,54.90
2018-07-11T08:15:25.478Z,54.60
2018-07-11T08:17:54.555Z,51.90
2018-07-11T08:20:23.617Z,51.60
2018-07-11T08:25:46.888Z,52.70
2018-07-11T08:28:26.720Z,52.70
2018-07-11T08:31:06.930Z,48.50
2018-07-11T08:36:03.494Z,48.50
2018-07-11T08:38:46.420Z,47.90
2018-07-11T08:41:33.925Z,48.00
2018-07-11T08:44:16.354Z,48.50
2018-07-11T08:46:52.740Z,46.80
2018-07-11T08:51:39.354Z,47.30
2018-07-11T08:54:16.953Z,48.70
2018-07-11T08:56:53.368Z,47.70
2018-07-11T08:59:43.622Z,49.50
2018-07-11T09:04:33.401Z,49.60
2018-07-11T09:07:14.187Z,49.50
2018-07-11T09:10:55.733Z,49.90
2018-07-11T09:13:39.218Z,49.80
2018-07-11T09:16:42.345Z,51.60
2018-07-11T09:19:23.969Z,51.40
2018-07-11T09:22:18.725Z,53.40
2018-07-11T09:24:49.329Z,53.10
2018-07-11T09:27:18.415Z,54.60
2018-07-11T09:29:47.921Z,55.30
2018-07-11T09:32:16.999Z,55.00
2018-07-11T09:34:46.395Z,55.60
2018-07-11T09:37:15.706Z,55.50
2018-07-11T09:39:44.548Z,56.40
2018-07-11T09:42:14.007Z,56.40
2018-07-11T09:44:43.234Z,56.50
2018-07-11T09:47:18.053Z,57.60
2018-07-11T09:49:47.390Z,58.30
2018-07-11T09:52:16.591Z,57.40
2018-07-11T09:54:45.858Z,58.00
2018-07-11T09:57:14.722Z,57.70
2018-07-11T09:59:43.449Z,57.30
2018-07-11T10:02:12.472Z,56.30
2018-07-11T10:04:41.658Z,55.30
2018-07-11T10:07:10.799Z,55.20
2018-07-11T10:12:08.391Z,54.20
2018-07-11T10:14:42.101Z,54.20
2018-07-11T10:17:12.055Z,54.10
2018-07-11T10:19:41.221Z,51.70
2018-07-11T10:24:39.122Z,51.50
2018-07-11T10:27:08.093Z,50.30
2018-07-11T10:32:10.757Z,50.60
2018-07-11T10:34:39.550Z,51.30
2018-07-11T10:37:08.596Z,50.40
2018-07-11T10:39:37.667Z,50.30
2018-07-11T10:42:07.188Z,50.20
2018-07-11T10:44:36.165Z,50.10
2018-07-11T10:47:13.002Z,50.90
2018-07-11T10:49:43.498Z,53.20
2018-07-11T10:52:12.546Z,51.60
2018-07-11T10:54:42.053Z,53.30
2018-07-11T10:57:11.492Z,53.50
2018-07-11T10:59:41.002Z,53.70
2018-07-11T11:04:38.739Z,55.70
2018-07-11T11:07:07.765Z,56.60
2018-07-11T11:09:37.538Z,56.00
2018-07-11T11:12:07.346Z,56.00
2018-07-11T11:14:37.927Z,56.50
2018-07-11T11:17:06.926Z,57.20
2018-07-11T11:19:36.501Z,57.20
2018-07-11T11:22:05.800Z,58.00
2018-07-11T11:24:36.201Z,57.60
2018-07-11T11:27:06.794Z,57.30
2018-07-11T11:29:36.087Z,57.60
2018-07-11T11:32:05.832Z,57.40
2018-07-11T11:34:34.981Z,57.60
2018-07-11T11:39:33.008Z,57.30
2018-07-11T11:42:02.073Z,56.90
2018-07-11T11:44:30.926Z,57.40
2018-07-11T11:49:31.429Z,57.40
2018-07-11T11:52:00.861Z,58.30
2018-07-11T11:54:30.361Z,57.50
2018-07-11T11:56:59.641Z,58.50
2018-07-11T11:59:28.670Z,58.40
2018-07-11T12:01:58.437Z,57.90
2018-07-11T12:04:27.863Z,57.60
2018-07-11T12:06:57.042Z,57.60
2018-07-11T12:09:25.870Z,56.80
2018-07-11T12:11:55.401Z,55.80
2018-07-11T12:14:24.726Z,55.40
2018-07-11T12:16:54.114Z,55.30
2018-07-11T12:19:23.229Z,54.50
2018-07-11T12:21:52.106Z,53.00
2018-07-11T12:24:21.128Z,52.20
2018-07-11T12:26:51.030Z,51.40
2018-07-11T12:29:20.189Z,51.90
2018-07-11T12:31:49.603Z,52.80
2018-07-11T12:34:18.861Z,52.60
2018-07-11T12:36:48.390Z,53.70
2018-07-11T12:39:17.508Z,55.50
2018-07-11T12:41:46.808Z,58.20
2018-07-11T12:44:19.049Z,56.60
2018-07-11T12:46:50.481Z,54.80
2018-07-11T12:49:20.769Z,55.00
2018-07-11T12:51:51.950Z,56.50
2018-07-11T12:54:23.047Z,53.10
2018-07-11T12:56:57.406Z,53.10
2018-07-11T12:59:27.780Z,52.60
2018-07-11T13:01:57.669Z,53.10
2018-07-11T13:17:28.377Z,52.90
2018-07-11T13:19:58.704Z,53.30
2018-07-11T13:34:46.635Z,54.20
2018-07-11T13:47:07.751Z,59.10
2018-07-11T13:49:37.424Z,61.50
2018-07-11T13:52:07.160Z,63.60
2018-07-11T13:54:37.352Z,61.40
2018-07-11T13:57:06.693Z,61.60
2018-07-11T13:59:37.299Z,62.50
2018-07-11T14:15:08.177Z,61.20
2018-07-11T14:17:38.251Z,59.80
2018-07-11T14:20:10.859Z,60.50
2018-07-11T14:22:46.677Z,61.20
2018-07-11T14:35:03.426Z,60.30
2018-07-11T14:37:35.110Z,59.70
2018-07-11T14:40:05.821Z,59.70
2018-07-11T14:45:05.575Z,58.30
2018-07-11T14:47:43.160Z,57.40
2018-07-11T15:03:08.959Z,55.90
2018-07-11T15:05:40.387Z,52.50
2018-07-11T15:10:40.372Z,52.30
2018-07-11T15:13:11.143Z,50.80
2018-07-11T15:15:40.423Z,50.20
2018-07-11T15:31:05.569Z,50.00
2018-07-11T15:33:37.480Z,51.50
2018-07-11T15:36:07.332Z,51.60
2018-07-11T15:38:38.554Z,51.20
2018-07-11T15:41:11.824Z,52.70
2018-07-11T15:43:42.219Z,53.20
2018-07-11T15:46:12.434Z,53.30
2018-07-11T15:48:44.846Z,53.50
2018-07-11T16:10:53.248Z,54.50
2018-07-11T16:13:24.135Z,56.50
2018-07-11T16:15:57.177Z,55.80
2018-07-11T16:18:27.436Z,57.00
2018-07-11T16:20:57.300Z,56.90
2018-07-11T16:23:27.606Z,57.70
2018-07-11T16:25:59.360Z,58.80
2018-07-11T16:28:29.184Z,60.50
2018-07-11T16:44:01.101Z,62.00
2018-07-11T16:46:30.507Z,66.70
2018-07-11T16:48:59.890Z,68.80
2018-07-11T16:51:30.995Z,69.20
2018-07-11T16:54:01.873Z,69.80
2018-07-11T16:56:30.996Z,70.40
2018-07-11T17:01:35.064Z,71.00
2018-07-11T17:04:07.776Z,70.10
2018-07-11T17:06:39.109Z,70.20
2018-07-11T17:09:09.777Z,72.00
2018-07-11T17:12:01.749Z,72.70
2018-07-11T17:17:08.270Z,73.30
2018-07-11T17:19:46.421Z,75.30
2018-07-11T17:22:17.074Z,76.20
2018-07-11T17:24:49.311Z,75.80
2018-07-11T17:27:23.749Z,76.00
2018-07-11T17:29:56.985Z,76.40
2018-07-11T17:32:27.277Z,75.50
2018-07-11T17:34:56.974Z,75.10
2018-07-11T17:37:46.682Z,75.10
2018-07-11T17:40:17.507Z,75.50
2018-07-11T17:42:49.115Z,77.20
2018-07-11T17:58:20.252Z,77.20
2018-07-11T18:13:54.433Z,77.50
2018-07-11T18:29:22.125Z,79.20
2018-07-11T18:32:02.453Z,82.30
2018-07-11T18:34:45.720Z,82.30
2018-07-11T18:37:25.055Z,83.00
2018-07-11T18:40:05.449Z,83.50
2018-07-11T18:42:47.761Z,83.90
2018-07-11T18:47:28.213Z,84.60
2018-07-11T18:50:11.076Z,84.90
2018-07-11T18:52:53.841Z,84.80
2018-07-11T18:55:38.525Z,85.50
2018-07-11T18:58:33.420Z,86.00
2018-07-11T19:01:14.689Z,86.70
2018-07-11T19:03:57.483Z,87.50
2018-07-11T19:06:35.765Z,88.50
2018-07-11T19:09:12.233Z,89.30
2018-07-11T19:12:01.799Z,89.80
2018-07-11T19:14:39.277Z,89.60
2018-07-11T19:19:20.491Z,90.00
2018-07-11T19:22:00.935Z,90.10
2018-07-11T19:24:44.314Z,90.30
2018-07-11T19:27:22.930Z,90.60
2018-07-11T19:30:07.499Z,90.70
2018-07-11T19:32:49.209Z,90.60
2018-07-11T19:35:42.075Z,90.70
2018-07-11T19:38:32.627Z,90.60
2018-07-11T19:41:11.735Z,90.70
2018-07-11T19:56:49.421Z,91.10
2018-07-11T20:12:37.343Z,91.20
2018-07-11T20:15:33.591Z,91.40
2018-07-11T20:18:08.356Z,91.20
2018-07-11T20:21:12.100Z,91.20
2018-07-11T20:27:12.416Z,91.40
2018-07-11T20:30:17.992Z,91.00
2018-07-11T20:33:22.249Z,91.20
2018-07-11T20:39:25.631Z,91.40
2018-07-11T20:42:31.491Z,91.40
2018-07-11T20:51:37.397Z,91.50
2018-07-11T20:57:35.526Z,91.70
2018-07-11T21:03:33.095Z,91.70
2018-07-11T21:11:40.562Z,91.80
2018-07-11T21:14:37.920Z,92.20
2018-07-11T21:18:33.107Z,92.30
2018-07-11T21:24:36.572Z,93.20
2018-07-11T21:27:38.678Z,92.50
2018-07-11T21:30:41.756Z,92.70
2018-07-11T21:33:43.227Z,92.90
2018-07-11T21:36:14.909Z,93.00
2018-07-11T21:38:48.038Z,92.80
2018-07-11T21:41:18.748Z,93.20
2018-07-11T21:43:48.628Z,93.20
2018-07-11T21:46:19.102Z,93.20
2018-07-11T21:48:49.587Z,93.30
2018-07-11T21:51:19.151Z,93.60
2018-07-11T21:53:50.078Z,93.80
2018-07-11T21:56:22.848Z,93.90
2018-07-11T21:58:53.267Z,93.80
2018-07-11T22:01:23.444Z,94.20
2018-07-11T22:03:53.856Z,94.30
2018-07-11T22:06:23.985Z,94.20
2018-07-11T22:08:54.427Z,94.40
2018-07-11T22:11:24.205Z,94.40
2018-07-11T22:13:53.715Z,94.50
2018-07-11T22:16:24.455Z,94.50
2018-07-11T22:18:56.702Z,94.80
2018-07-11T22:21:26.007Z,94.80
2018-07-11T22:23:53.674Z,95.00
2018-07-11T22:26:22.847Z,95.00
2018-07-11T22:28:50.606Z,95.00
2018-07-11T22:31:20.214Z,95.10
2018-07-11T22:33:48.705Z,95.30
2018-07-11T22:36:17.125Z,95.20
2018-07-11T22:41:13.020Z,95.50
2018-07-11T22:43:40.839Z,95.50
2018-07-11T22:46:09.782Z,95.50
2018-07-11T22:48:37.645Z,95.60
2018-07-11T22:51:07.371Z,95.50
2018-07-11T22:53:37.338Z,95.40
2018-07-11T22:56:06.749Z,95.50
2018-07-11T22:58:36.618Z,95.70
2018-07-11T23:01:07.714Z,95.80
2018-07-11T23:03:36.163Z,95.80
2018-07-11T23:18:59.123Z,95.80
2018-07-11T23:21:26.884Z,96.10
2018-07-11T23:23:55.304Z,96.20
2018-07-11T23:26:25.784Z,96.30
2018-07-11T23:41:06.619Z,96.80
2018-07-11T23:56:34.385Z,96.60
2018-07-11T23:59:02.047Z,96.90
